sensor_id;sensor_type;location;lat;lon;timestamp;temperature;humidity
6822;DHT22;3449;48.728;8.968;2022-08-25T00:01:49;19.80;99.90
6822;DHT22;3449;48.728;8.968;2022-08-25T00:04:18;19.80;99.90
6822;DHT22;3449;48.728;8.968;2022-08-25T00:06:46;19.80;99.90
6822;DHT22;3449;48.728;8.968;2022-08-25T00:09:16;19.80;99.90
6822;DHT22;3449;48.728;8.968;2022-08-25T00:11:44;19.70;99.90
6822;DHT22;3449;48.728;8.968;2022-08-25T00:14:17;19.70;99.90
6822;DHT22;3449;48.728;8.968;2022-08-25T00:16:44;19.70;99.90
6822;DHT22;3449;48.728;8.968;2022-08-25T00:19:14;19.70;99.90
6822;DHT22;3449;48.728;8.968;2022-08-25T00:21:42;19.70;99.90
6822;DHT22;3449;48.728;8.968;2022-08-25T00:24:11;19.70;99.90
6822;DHT22;3449;48.728;8.968;2022-08-25T00:26:41;19.70;99.90
6822;DHT22;3449;48.728;8.968;2022-08-25T00:29:09;19.60;99.90
6822;DHT22;3449;48.728;8.968;2022-08-25T00:31:38;19.60;99.90
6822;DHT22;3449;48.728;8.968;2022-08-25T00:34:07;19.60;99.90
6822;DHT22;3449;48.728;8.968;2022-08-25T00:36:35;19.60;99.90
6822;DHT22;3449;48.728;8.968;2022-08-25T00:39:03;19.60;99.90
6822;DHT22;3449;48.728;8.968;2022-08-25T00:41:30;19.50;99.90
6822;DHT22;3449;48.728;8.968;2022-08-25T00:44:03;19.50;99.90
6822;DHT22;3449;48.728;8.968;2022-08-25T00:46:34;19.50;99.90
6822;DHT22;3449;48.728;8.968;2022-08-25T00:49:06;19.50;99.90
6822;DHT22;3449;48.728;8.968;2022-08-25T00:51:37;19.40;99.90
6822;DHT22;3449;48.728;8.968;2022-08-25T00:54:06;19.40;99.90
6822;DHT22;3449;48.728;8.968;2022-08-25T00:56:34;19.30;99.90
6822;DHT22;3449;48.728;8.968;2022-08-25T00:59:03;19.30;99.90
6822;DHT22;3449;48.728;8.968;2022-08-25T01:01:30;19.30;99.90
6822;DHT22;3449;48.728;8.968;2022-08-25T01:03:57;19.20;99.90
6822;DHT22;3449;48.728;8.968;2022-08-25T01:06:27;19.10;99.90
6822;DHT22;3449;48.728;8.968;2022-08-25T01:08:55;19.10;99.90
6822;DHT22;3449;48.728;8.968;2022-08-25T01:11:23;19.00;99.90
6822;DHT22;3449;48.728;8.968;2022-08-25T01:13:52;18.90;99.90
6822;DHT22;3449;48.728;8.968;2022-08-25T01:16:19;18.80;99.90
6822;DHT22;3449;48.728;8.968;2022-08-25T01:18:49;18.80;99.90
6822;DHT22;3449;48.728;8.968;2022-08-25T01:21:20;18.70;99.90
6822;DHT22;3449;48.728;8.968;2022-08-25T01:23:48;18.70;99.90
6822;DHT22;3449;48.728;8.968;2022-08-25T01:26:18;18.70;99.90
6822;DHT22;3449;48.728;8.968;2022-08-25T01:28:46;18.60;99.90
6822;DHT22;3449;48.728;8.968;2022-08-25T01:31:32;18.60;99.90
6822;DHT22;3449;48.728;8.968;2022-08-25T01:33:59;18.50;99.90
6822;DHT22;3449;48.728;8.968;2022-08-25T01:36:28;18.50;99.90
6822;DHT22;3449;48.728;8.968;2022-08-25T01:38:56;18.50;99.90
6822;DHT22;3449;48.728;8.968;2022-08-25T01:41:30;18.40;99.90
6822;DHT22;3449;48.728;8.968;2022-08-25T01:44:02;18.40;99.90
6822;DHT22;3449;48.728;8.968;2022-08-25T01:46:32;18.40;99.90
6822;DHT22;3449;48.728;8.968;2022-08-25T01:48:59;18.30;99.90
6822;DHT22;3449;48.728;8.968;2022-08-25T01:51:33;18.30;99.90
6822;DHT22;3449;48.728;8.968;2022-08-25T01:54:00;18.20;99.90
6822;DHT22;3449;48.728;8.968;2022-08-25T01:56:27;18.10;99.90
6822;DHT22;3449;48.728;8.968;2022-08-25T01:58:54;18.10;99.90
6822;DHT22;3449;48.728;8.968;2022-08-25T02:01:22;18.10;99.90
6822;DHT22;3449;48.728;8.968;2022-08-25T02:03:52;18.10;99.90
6822;DHT22;3449;48.728;8.968;2022-08-25T02:06:23;18.10;99.90
6822;DHT22;3449;48.728;8.968;2022-08-25T02:08:55;18.00;99.90
6822;DHT22;3449;48.728;8.968;2022-08-25T02:11:23;18.00;99.90
6822;DHT22;3449;48.728;8.968;2022-08-25T02:13:51;17.90;99.90
6822;DHT22;3449;48.728;8.968;2022-08-25T02:16:21;17.90;99.90
6822;DHT22;3449;48.728;8.968;2022-08-25T02:18:48;17.80;99.90
6822;DHT22;3449;48.728;8.968;2022-08-25T02:21:15;17.70;99.90
6822;DHT22;3449;48.728;8.968;2022-08-25T02:23:43;17.70;99.90
6822;DHT22;3449;48.728;8.968;2022-08-25T02:26:12;17.70;99.90
6822;DHT22;3449;48.728;8.968;2022-08-25T02:28:41;17.60;99.90
6822;DHT22;3449;48.728;8.968;2022-08-25T02:31:09;17.70;99.90
6822;DHT22;3449;48.728;8.968;2022-08-25T02:33:36;17.60;99.90
6822;DHT22;3449;48.728;8.968;2022-08-25T02:36:04;17.70;99.90
6822;DHT22;3449;48.728;8.968;2022-08-25T02:38:34;17.60;99.90
6822;DHT22;3449;48.728;8.968;2022-08-25T02:41:08;17.70;99.90
6822;DHT22;3449;48.728;8.968;2022-08-25T02:43:38;17.60;99.90
6822;DHT22;3449;48.728;8.968;2022-08-25T02:46:05;17.50;99.90
6822;DHT22;3449;48.728;8.968;2022-08-25T02:48:32;17.40;99.90
6822;DHT22;3449;48.728;8.968;2022-08-25T02:51:00;17.40;99.90
6822;DHT22;3449;48.728;8.968;2022-08-25T02:53:27;17.40;99.90
6822;DHT22;3449;48.728;8.968;2022-08-25T02:55:55;17.30;99.90
6822;DHT22;3449;48.728;8.968;2022-08-25T02:58:22;17.30;99.90
6822;DHT22;3449;48.728;8.968;2022-08-25T03:00:50;17.30;99.90
6822;DHT22;3449;48.728;8.968;2022-08-25T03:03:18;17.20;99.90
6822;DHT22;3449;48.728;8.968;2022-08-25T03:05:45;17.20;99.90
6822;DHT22;3449;48.728;8.968;2022-08-25T03:08:12;17.20;99.90
6822;DHT22;3449;48.728;8.968;2022-08-25T03:10:39;17.20;99.90
6822;DHT22;3449;48.728;8.968;2022-08-25T03:13:06;17.20;99.90
6822;DHT22;3449;48.728;8.968;2022-08-25T03:15:33;17.10;99.90
6822;DHT22;3449;48.728;8.968;2022-08-25T03:18:04;17.10;99.90
6822;DHT22;3449;48.728;8.968;2022-08-25T03:20:31;17.10;99.90
6822;DHT22;3449;48.728;8.968;2022-08-25T03:23:00;17.10;99.90
6822;DHT22;3449;48.728;8.968;2022-08-25T03:25:27;17.10;99.90
6822;DHT22;3449;48.728;8.968;2022-08-25T03:28:12;17.00;99.90
6822;DHT22;3449;48.728;8.968;2022-08-25T03:30:39;17.00;99.90
6822;DHT22;3449;48.728;8.968;2022-08-25T03:33:08;17.00;99.90
6822;DHT22;3449;48.728;8.968;2022-08-25T03:35:35;17.00;99.90
6822;DHT22;3449;48.728;8.968;2022-08-25T03:38:04;16.90;99.90
6822;DHT22;3449;48.728;8.968;2022-08-25T03:40:31;16.90;99.90
6822;DHT22;3449;48.728;8.968;2022-08-25T03:42:58;17.00;99.90
6822;DHT22;3449;48.728;8.968;2022-08-25T03:45:25;16.90;99.90
6822;DHT22;3449;48.728;8.968;2022-08-25T03:47:52;16.90;99.90
6822;DHT22;3449;48.728;8.968;2022-08-25T03:50:22;16.90;99.90
6822;DHT22;3449;48.728;8.968;2022-08-25T03:52:54;16.90;99.90
6822;DHT22;3449;48.728;8.968;2022-08-25T03:55:22;16.90;99.90
6822;DHT22;3449;48.728;8.968;2022-08-25T03:57:50;16.90;99.90
6822;DHT22;3449;48.728;8.968;2022-08-25T04:00:18;16.80;99.90
6822;DHT22;3449;48.728;8.968;2022-08-25T04:02:45;16.80;99.90
6822;DHT22;3449;48.728;8.968;2022-08-25T04:05:13;16.70;99.90
6822;DHT22;3449;48.728;8.968;2022-08-25T04:07:41;16.70;99.90
6822;DHT22;3449;48.728;8.968;2022-08-25T04:10:09;16.60;99.90
6822;DHT22;3449;48.728;8.968;2022-08-25T04:12:37;16.60;99.90
6822;DHT22;3449;48.728;8.968;2022-08-25T04:15:05;16.70;99.90
6822;DHT22;3449;48.728;8.968;2022-08-25T04:17:36;16.60;99.90
6822;DHT22;3449;48.728;8.968;2022-08-25T04:20:06;16.60;99.90
6822;DHT22;3449;48.728;8.968;2022-08-25T04:22:34;16.50;99.90
6822;DHT22;3449;48.728;8.968;2022-08-25T04:25:03;16.50;99.90
6822;DHT22;3449;48.728;8.968;2022-08-25T04:27:30;16.50;99.90
6822;DHT22;3449;48.728;8.968;2022-08-25T04:29:57;16.40;99.90
6822;DHT22;3449;48.728;8.968;2022-08-25T04:32:24;16.30;99.90
6822;DHT22;3449;48.728;8.968;2022-08-25T04:34:51;16.40;99.90
6822;DHT22;3449;48.728;8.968;2022-08-25T04:37:18;16.30;99.90
6822;DHT22;3449;48.728;8.968;2022-08-25T04:39:45;16.40;99.90
6822;DHT22;3449;48.728;8.968;2022-08-25T04:42:13;16.40;99.90
6822;DHT22;3449;48.728;8.968;2022-08-25T04:44:40;16.30;99.90
6822;DHT22;3449;48.728;8.968;2022-08-25T04:47:07;16.30;99.90
6822;DHT22;3449;48.728;8.968;2022-08-25T04:49:35;16.30;99.90
6822;DHT22;3449;48.728;8.968;2022-08-25T04:52:03;16.30;99.90
6822;DHT22;3449;48.728;8.968;2022-08-25T04:54:30;16.30;99.90
6822;DHT22;3449;48.728;8.968;2022-08-25T04:56:57;16.30;99.90
6822;DHT22;3449;48.728;8.968;2022-08-25T04:59:25;16.30;99.90
6822;DHT22;3449;48.728;8.968;2022-08-25T05:01:53;16.30;99.90
6822;DHT22;3449;48.728;8.968;2022-08-25T05:04:20;16.40;99.90
6822;DHT22;3449;48.728;8.968;2022-08-25T05:06:48;16.40;99.90
6822;DHT22;3449;48.728;8.968;2022-08-25T05:09:15;16.30;99.90
6822;DHT22;3449;48.728;8.968;2022-08-25T05:11:42;16.40;99.90
6822;DHT22;3449;48.728;8.968;2022-08-25T05:14:09;16.40;99.90
6822;DHT22;3449;48.728;8.968;2022-08-25T05:16:41;16.40;99.90
6822;DHT22;3449;48.728;8.968;2022-08-25T05:19:08;16.40;99.90
6822;DHT22;3449;48.728;8.968;2022-08-25T05:21:35;16.50;99.90
6822;DHT22;3449;48.728;8.968;2022-08-25T05:24:03;16.50;99.90
6822;DHT22;3449;48.728;8.968;2022-08-25T05:26:31;16.50;99.90
6822;DHT22;3449;48.728;8.968;2022-08-25T05:29:00;16.50;99.90
6822;DHT22;3449;48.728;8.968;2022-08-25T05:31:29;16.50;99.90
6822;DHT22;3449;48.728;8.968;2022-08-25T05:33:57;16.60;99.90
6822;DHT22;3449;48.728;8.968;2022-08-25T05:36:26;16.70;99.90
6822;DHT22;3449;48.728;8.968;2022-08-25T05:38:54;16.90;99.90
6822;DHT22;3449;48.728;8.968;2022-08-25T05:41:25;17.00;99.90
6822;DHT22;3449;48.728;8.968;2022-08-25T05:43:53;17.20;99.90
6822;DHT22;3449;48.728;8.968;2022-08-25T05:46:20;17.20;99.90
6822;DHT22;3449;48.728;8.968;2022-08-25T05:48:48;17.30;99.90
6822;DHT22;3449;48.728;8.968;2022-08-25T05:51:17;17.40;99.90
6822;DHT22;3449;48.728;8.968;2022-08-25T05:53:46;17.40;99.90
6822;DHT22;3449;48.728;8.968;2022-08-25T05:56:14;17.50;99.90
6822;DHT22;3449;48.728;8.968;2022-08-25T05:58:42;17.60;99.90
6822;DHT22;3449;48.728;8.968;2022-08-25T06:01:10;17.80;99.90
6822;DHT22;3449;48.728;8.968;2022-08-25T06:04:01;17.90;99.90
6822;DHT22;3449;48.728;8.968;2022-08-25T06:06:31;18.20;99.90
6822;DHT22;3449;48.728;8.968;2022-08-25T06:08:57;18.40;99.90
6822;DHT22;3449;48.728;8.968;2022-08-25T06:11:24;18.50;99.90
6822;DHT22;3449;48.728;8.968;2022-08-25T06:13:52;18.70;99.90
6822;DHT22;3449;48.728;8.968;2022-08-25T06:16:19;18.90;99.90
6822;DHT22;3449;48.728;8.968;2022-08-25T06:18:46;19.10;99.90
6822;DHT22;3449;48.728;8.968;2022-08-25T06:21:14;19.20;99.90
6822;DHT22;3449;48.728;8.968;2022-08-25T06:23:43;19.40;99.90
6822;DHT22;3449;48.728;8.968;2022-08-25T06:26:11;19.60;99.90
6822;DHT22;3449;48.728;8.968;2022-08-25T06:28:38;19.70;99.90
6822;DHT22;3449;48.728;8.968;2022-08-25T06:31:06;19.90;99.90
6822;DHT22;3449;48.728;8.968;2022-08-25T06:33:33;20.00;99.90
6822;DHT22;3449;48.728;8.968;2022-08-25T06:36:00;20.20;99.90
6822;DHT22;3449;48.728;8.968;2022-08-25T06:38:27;20.40;99.90
6822;DHT22;3449;48.728;8.968;2022-08-25T06:40:55;20.50;99.90
6822;DHT22;3449;48.728;8.968;2022-08-25T06:43:23;20.60;99.90
6822;DHT22;3449;48.728;8.968;2022-08-25T06:45:50;20.80;99.90
6822;DHT22;3449;48.728;8.968;2022-08-25T06:48:16;20.80;99.90
6822;DHT22;3449;48.728;8.968;2022-08-25T06:50:43;21.00;99.90
6822;DHT22;3449;48.728;8.968;2022-08-25T06:53:10;21.20;99.90
6822;DHT22;3449;48.728;8.968;2022-08-25T06:55:38;21.30;99.90
6822;DHT22;3449;48.728;8.968;2022-08-25T06:58:06;21.30;99.90
6822;DHT22;3449;48.728;8.968;2022-08-25T07:00:34;21.40;99.90
6822;DHT22;3449;48.728;8.968;2022-08-25T07:03:01;21.50;99.90
6822;DHT22;3449;48.728;8.968;2022-08-25T07:05:29;21.70;99.90
6822;DHT22;3449;48.728;8.968;2022-08-25T07:07:56;21.90;99.90
6822;DHT22;3449;48.728;8.968;2022-08-25T07:10:24;22.10;99.90
6822;DHT22;3449;48.728;8.968;2022-08-25T07:12:51;22.20;99.90
6822;DHT22;3449;48.728;8.968;2022-08-25T07:15:19;22.30;99.90
6822;DHT22;3449;48.728;8.968;2022-08-25T07:17:47;22.40;99.90
6822;DHT22;3449;48.728;8.968;2022-08-25T07:20:14;22.60;99.90
6822;DHT22;3449;48.728;8.968;2022-08-25T07:22:41;22.60;99.90
6822;DHT22;3449;48.728;8.968;2022-08-25T07:25:09;22.60;99.90
6822;DHT22;3449;48.728;8.968;2022-08-25T07:27:37;22.90;99.90
6822;DHT22;3449;48.728;8.968;2022-08-25T07:30:07;23.20;99.90
6822;DHT22;3449;48.728;8.968;2022-08-25T07:32:35;23.30;99.90
6822;DHT22;3449;48.728;8.968;2022-08-25T07:35:02;23.40;99.90
6822;DHT22;3449;48.728;8.968;2022-08-25T07:37:42;23.40;99.90
6822;DHT22;3449;48.728;8.968;2022-08-25T07:40:12;23.70;99.90
6822;DHT22;3449;48.728;8.968;2022-08-25T07:42:40;23.60;99.90
6822;DHT22;3449;48.728;8.968;2022-08-25T07:45:08;23.80;99.90
6822;DHT22;3449;48.728;8.968;2022-08-25T07:47:38;24.00;99.90
6822;DHT22;3449;48.728;8.968;2022-08-25T07:50:07;24.20;99.90
6822;DHT22;3449;48.728;8.968;2022-08-25T07:52:35;24.40;99.90
6822;DHT22;3449;48.728;8.968;2022-08-25T07:55:02;24.60;99.90
6822;DHT22;3449;48.728;8.968;2022-08-25T07:57:29;24.50;99.90
6822;DHT22;3449;48.728;8.968;2022-08-25T07:59:57;24.60;99.90
6822;DHT22;3449;48.728;8.968;2022-08-25T08:02:24;24.70;99.90
6822;DHT22;3449;48.728;8.968;2022-08-25T08:04:53;24.90;99.90
6822;DHT22;3449;48.728;8.968;2022-08-25T08:07:22;24.90;99.90
6822;DHT22;3449;48.728;8.968;2022-08-25T08:09:50;25.10;99.90
6822;DHT22;3449;48.728;8.968;2022-08-25T08:12:17;25.30;99.90
6822;DHT22;3449;48.728;8.968;2022-08-25T08:14:44;25.10;99.90
6822;DHT22;3449;48.728;8.968;2022-08-25T08:17:12;25.10;99.90
6822;DHT22;3449;48.728;8.968;2022-08-25T08:19:39;25.20;99.90
6822;DHT22;3449;48.728;8.968;2022-08-25T08:22:08;25.40;99.90
6822;DHT22;3449;48.728;8.968;2022-08-25T08:24:36;25.20;99.90
6822;DHT22;3449;48.728;8.968;2022-08-25T08:27:04;25.30;99.90
6822;DHT22;3449;48.728;8.968;2022-08-25T08:29:32;25.20;99.90
6822;DHT22;3449;48.728;8.968;2022-08-25T08:31:59;25.30;99.90
6822;DHT22;3449;48.728;8.968;2022-08-25T08:34:26;25.50;99.90
6822;DHT22;3449;48.728;8.968;2022-08-25T08:36:53;25.50;99.90
6822;DHT22;3449;48.728;8.968;2022-08-25T08:39:21;25.40;99.90
6822;DHT22;3449;48.728;8.968;2022-08-25T08:41:58;25.50;99.90
6822;DHT22;3449;48.728;8.968;2022-08-25T08:45:06;25.60;99.90
6822;DHT22;3449;48.728;8.968;2022-08-25T08:47:46;25.80;99.90
6822;DHT22;3449;48.728;8.968;2022-08-25T08:50:24;25.70;99.90
6822;DHT22;3449;48.728;8.968;2022-08-25T08:52:58;25.70;99.90
6822;DHT22;3449;48.728;8.968;2022-08-25T08:55:30;25.70;99.90
6822;DHT22;3449;48.728;8.968;2022-08-25T08:57:59;26.00;99.90
6822;DHT22;3449;48.728;8.968;2022-08-25T09:00:30;25.90;99.90
6822;DHT22;3449;48.728;8.968;2022-08-25T09:03:02;26.30;99.90
6822;DHT22;3449;48.728;8.968;2022-08-25T09:05:35;26.50;99.90
6822;DHT22;3449;48.728;8.968;2022-08-25T09:08:09;26.50;99.90
6822;DHT22;3449;48.728;8.968;2022-08-25T09:10:49;26.60;99.90
6822;DHT22;3449;48.728;8.968;2022-08-25T09:13:26;26.40;99.90
6822;DHT22;3449;48.728;8.968;2022-08-25T09:16:02;26.80;99.90
6822;DHT22;3449;48.728;8.968;2022-08-25T09:18:55;27.00;99.90
6822;DHT22;3449;48.728;8.968;2022-08-25T09:21:31;27.30;99.90
6822;DHT22;3449;48.728;8.968;2022-08-25T09:24:12;27.40;99.90
6822;DHT22;3449;48.728;8.968;2022-08-25T09:26:48;27.70;99.90
6822;DHT22;3449;48.728;8.968;2022-08-25T09:29:22;27.80;99.90
6822;DHT22;3449;48.728;8.968;2022-08-25T09:31:51;27.40;99.90
6822;DHT22;3449;48.728;8.968;2022-08-25T09:34:24;27.60;99.90
6822;DHT22;3449;48.728;8.968;2022-08-25T09:36:55;27.40;99.90
6822;DHT22;3449;48.728;8.968;2022-08-25T09:39:22;27.30;99.90
6822;DHT22;3449;48.728;8.968;2022-08-25T09:41:53;27.10;99.90
6822;DHT22;3449;48.728;8.968;2022-08-25T09:44:22;27.10;99.90
6822;DHT22;3449;48.728;8.968;2022-08-25T09:46:59;27.40;99.90
6822;DHT22;3449;48.728;8.968;2022-08-25T09:49:35;27.50;99.90
6822;DHT22;3449;48.728;8.968;2022-08-25T09:52:32;27.70;99.90
6822;DHT22;3449;48.728;8.968;2022-08-25T09:55:24;27.90;99.90
6822;DHT22;3449;48.728;8.968;2022-08-25T09:57:54;27.50;99.90
6822;DHT22;3449;48.728;8.968;2022-08-25T10:00:24;27.50;99.90
6822;DHT22;3449;48.728;8.968;2022-08-25T10:03:07;28.00;99.90
6822;DHT22;3449;48.728;8.968;2022-08-25T10:05:56;27.50;99.90
6822;DHT22;3449;48.728;8.968;2022-08-25T10:08:30;27.70;99.90
6822;DHT22;3449;48.728;8.968;2022-08-25T10:10:59;28.10;99.90
6822;DHT22;3449;48.728;8.968;2022-08-25T10:13:38;28.30;99.90
6822;DHT22;3449;48.728;8.968;2022-08-25T10:16:09;28.20;99.90
6822;DHT22;3449;48.728;8.968;2022-08-25T10:18:36;28.20;99.90
6822;DHT22;3449;48.728;8.968;2022-08-25T10:21:11;28.20;99.90
6822;DHT22;3449;48.728;8.968;2022-08-25T10:23:41;28.70;99.90
6822;DHT22;3449;48.728;8.968;2022-08-25T10:26:18;28.80;99.90
6822;DHT22;3449;48.728;8.968;2022-08-25T10:28:56;29.10;99.90
6822;DHT22;3449;48.728;8.968;2022-08-25T10:31:34;29.60;99.90
6822;DHT22;3449;48.728;8.968;2022-08-25T10:34:18;28.90;99.90
6822;DHT22;3449;48.728;8.968;2022-08-25T10:36:55;29.20;99.90
6822;DHT22;3449;48.728;8.968;2022-08-25T10:39:34;29.60;99.90
6822;DHT22;3449;48.728;8.968;2022-08-25T10:45:09;30.30;99.90
6822;DHT22;3449;48.728;8.968;2022-08-25T10:48:07;30.70;99.90
6822;DHT22;3449;48.728;8.968;2022-08-25T10:50:40;30.80;99.90
6822;DHT22;3449;48.728;8.968;2022-08-25T10:53:24;31.00;99.90
6822;DHT22;3449;48.728;8.968;2022-08-25T10:56:03;31.10;99.90
6822;DHT22;3449;48.728;8.968;2022-08-25T10:59:02;31.80;99.90
6822;DHT22;3449;48.728;8.968;2022-08-25T11:01:46;31.50;99.90
6822;DHT22;3449;48.728;8.968;2022-08-25T11:04:20;31.50;99.90
6822;DHT22;3449;48.728;8.968;2022-08-25T11:06:55;31.30;99.90
6822;DHT22;3449;48.728;8.968;2022-08-25T11:09:28;31.80;99.90
6822;DHT22;3449;48.728;8.968;2022-08-25T11:11:59;31.30;99.90
6822;DHT22;3449;48.728;8.968;2022-08-25T11:14:31;31.10;99.90
6822;DHT22;3449;48.728;8.968;2022-08-25T11:17:05;31.50;99.90
6822;DHT22;3449;48.728;8.968;2022-08-25T11:19:37;31.50;99.90
6822;DHT22;3449;48.728;8.968;2022-08-25T11:22:12;31.20;99.90
6822;DHT22;3449;48.728;8.968;2022-08-25T11:24:52;30.90;99.90
6822;DHT22;3449;48.728;8.968;2022-08-25T11:27:30;30.70;99.90
6822;DHT22;3449;48.728;8.968;2022-08-25T11:30:03;31.10;99.90
6822;DHT22;3449;48.728;8.968;2022-08-25T11:32:33;31.60;99.90
6822;DHT22;3449;48.728;8.968;2022-08-25T11:35:02;32.30;99.90
6822;DHT22;3449;48.728;8.968;2022-08-25T11:37:31;32.60;99.90
6822;DHT22;3449;48.728;8.968;2022-08-25T11:40:34;33.00;99.90
6822;DHT22;3449;48.728;8.968;2022-08-25T11:43:13;32.60;99.90
6822;DHT22;3449;48.728;8.968;2022-08-25T11:45:57;32.30;99.90
6822;DHT22;3449;48.728;8.968;2022-08-25T11:48:39;32.60;99.90
6822;DHT22;3449;48.728;8.968;2022-08-25T11:51:09;31.80;99.90
6822;DHT22;3449;48.728;8.968;2022-08-25T11:53:38;31.60;99.90
6822;DHT22;3449;48.728;8.968;2022-08-25T11:56:08;31.50;99.90
6822;DHT22;3449;48.728;8.968;2022-08-25T11:58:43;31.00;99.90
6822;DHT22;3449;48.728;8.968;2022-08-25T12:04:33;32.10;99.90
6822;DHT22;3449;48.728;8.968;2022-08-25T12:07:22;33.00;99.90
6822;DHT22;3449;48.728;8.968;2022-08-25T12:10:18;32.30;99.90
6822;DHT22;3449;48.728;8.968;2022-08-25T12:13:05;31.10;99.90
6822;DHT22;3449;48.728;8.968;2022-08-25T12:16:01;29.90;99.90
6822;DHT22;3449;48.728;8.968;2022-08-25T12:18:43;29.20;99.90
6822;DHT22;3449;48.728;8.968;2022-08-25T12:21:28;28.90;99.90
6822;DHT22;3449;48.728;8.968;2022-08-25T12:24:10;29.10;99.90
6822;DHT22;3449;48.728;8.968;2022-08-25T12:26:53;29.50;99.90
6822;DHT22;3449;48.728;8.968;2022-08-25T12:29:31;29.70;99.90
6822;DHT22;3449;48.728;8.968;2022-08-25T12:32:35;29.90;99.90
6822;DHT22;3449;48.728;8.968;2022-08-25T12:35:24;30.90;99.90
6822;DHT22;3449;48.728;8.968;2022-08-25T12:38:03;31.40;99.90
6822;DHT22;3449;48.728;8.968;2022-08-25T12:40:34;31.50;99.90
6822;DHT22;3449;48.728;8.968;2022-08-25T12:43:07;32.00;99.90
6822;DHT22;3449;48.728;8.968;2022-08-25T12:45:43;32.20;99.90
6822;DHT22;3449;48.728;8.968;2022-08-25T12:48:42;32.80;99.90
6822;DHT22;3449;48.728;8.968;2022-08-25T12:51:18;33.10;99.90
6822;DHT22;3449;48.728;8.968;2022-08-25T12:53:49;32.80;99.90
6822;DHT22;3449;48.728;8.968;2022-08-25T12:56:23;33.20;99.90
6822;DHT22;3449;48.728;8.968;2022-08-25T12:59:10;33.50;99.90
6822;DHT22;3449;48.728;8.968;2022-08-25T13:01:58;32.90;99.90
6822;DHT22;3449;48.728;8.968;2022-08-25T13:07:41;32.00;99.90
6822;DHT22;3449;48.728;8.968;2022-08-25T13:10:26;32.00;99.90
6822;DHT22;3449;48.728;8.968;2022-08-25T13:12:59;32.30;99.90
6822;DHT22;3449;48.728;8.968;2022-08-25T13:15:35;32.70;99.90
6822;DHT22;3449;48.728;8.968;2022-08-25T13:18:18;32.80;99.90
6822;DHT22;3449;48.728;8.968;2022-08-25T13:20:47;32.40;99.90
6822;DHT22;3449;48.728;8.968;2022-08-25T13:23:18;31.60;99.90
6822;DHT22;3449;48.728;8.968;2022-08-25T13:25:50;31.10;99.90
6822;DHT22;3449;48.728;8.968;2022-08-25T13:28:22;30.60;99.90
6822;DHT22;3449;48.728;8.968;2022-08-25T13:30:56;30.40;99.90
6822;DHT22;3449;48.728;8.968;2022-08-25T13:33:23;30.00;99.90
6822;DHT22;3449;48.728;8.968;2022-08-25T13:35:52;29.60;99.90
6822;DHT22;3449;48.728;8.968;2022-08-25T13:38:40;29.50;99.90
6822;DHT22;3449;48.728;8.968;2022-08-25T13:41:09;29.20;99.90
6822;DHT22;3449;48.728;8.968;2022-08-25T13:43:37;29.10;99.90
6822;DHT22;3449;48.728;8.968;2022-08-25T13:46:04;29.10;99.90
6822;DHT22;3449;48.728;8.968;2022-08-25T13:48:34;29.50;99.90
6822;DHT22;3449;48.728;8.968;2022-08-25T13:51:08;30.70;99.90
6822;DHT22;3449;48.728;8.968;2022-08-25T13:53:36;31.80;99.90
6822;DHT22;3449;48.728;8.968;2022-08-25T13:56:04;32.10;99.90
6822;DHT22;3449;48.728;8.968;2022-08-25T13:58:34;32.30;99.90
6822;DHT22;3449;48.728;8.968;2022-08-25T14:01:06;31.50;99.90
6822;DHT22;3449;48.728;8.968;2022-08-25T14:03:37;31.00;99.90
6822;DHT22;3449;48.728;8.968;2022-08-25T14:06:07;31.10;99.90
6822;DHT22;3449;48.728;8.968;2022-08-25T14:08:37;30.90;99.90
6822;DHT22;3449;48.728;8.968;2022-08-25T14:11:09;31.30;99.90
6822;DHT22;3449;48.728;8.968;2022-08-25T14:13:40;32.30;99.90
6822;DHT22;3449;48.728;8.968;2022-08-25T14:16:10;32.30;99.90
6822;DHT22;3449;48.728;8.968;2022-08-25T14:18:45;32.50;99.90
6822;DHT22;3449;48.728;8.968;2022-08-25T14:21:14;31.60;99.90
6822;DHT22;3449;48.728;8.968;2022-08-25T14:23:41;31.20;99.90
6822;DHT22;3449;48.728;8.968;2022-08-25T14:26:09;30.90;99.90
6822;DHT22;3449;48.728;8.968;2022-08-25T14:28:38;30.50;99.90
6822;DHT22;3449;48.728;8.968;2022-08-25T14:31:08;30.20;99.90
6822;DHT22;3449;48.728;8.968;2022-08-25T14:33:38;30.40;99.90
6822;DHT22;3449;48.728;8.968;2022-08-25T14:36:05;30.70;99.90
6822;DHT22;3449;48.728;8.968;2022-08-25T14:38:33;30.70;99.90
6822;DHT22;3449;48.728;8.968;2022-08-25T14:41:03;31.30;99.90
6822;DHT22;3449;48.728;8.968;2022-08-25T14:43:31;31.70;99.90
6822;DHT22;3449;48.728;8.968;2022-08-25T14:45:59;32.10;99.90
6822;DHT22;3449;48.728;8.968;2022-08-25T14:48:30;32.20;99.90
6822;DHT22;3449;48.728;8.968;2022-08-25T14:50:59;32.90;99.90
6822;DHT22;3449;48.728;8.968;2022-08-25T14:53:27;33.50;99.90
6822;DHT22;3449;48.728;8.968;2022-08-25T14:55:53;33.00;99.90
6822;DHT22;3449;48.728;8.968;2022-08-25T14:58:21;33.40;99.90
6822;DHT22;3449;48.728;8.968;2022-08-25T15:00:49;32.90;99.90
6822;DHT22;3449;48.728;8.968;2022-08-25T15:03:22;33.00;99.90
6822;DHT22;3449;48.728;8.968;2022-08-25T15:05:51;33.60;99.90
6822;DHT22;3449;48.728;8.968;2022-08-25T15:08:18;33.40;99.90
6822;DHT22;3449;48.728;8.968;2022-08-25T15:11:03;33.50;99.90
6822;DHT22;3449;48.728;8.968;2022-08-25T15:13:30;33.40;99.90
6822;DHT22;3449;48.728;8.968;2022-08-25T15:15:58;33.50;99.90
6822;DHT22;3449;48.728;8.968;2022-08-25T15:18:26;33.40;99.90
6822;DHT22;3449;48.728;8.968;2022-08-25T15:20:54;33.20;99.90
6822;DHT22;3449;48.728;8.968;2022-08-25T15:23:21;33.90;99.90
6822;DHT22;3449;48.728;8.968;2022-08-25T15:25:49;34.70;99.90
6822;DHT22;3449;48.728;8.968;2022-08-25T15:28:16;34.70;99.90
6822;DHT22;3449;48.728;8.968;2022-08-25T15:30:43;35.30;99.90
6822;DHT22;3449;48.728;8.968;2022-08-25T15:33:11;34.80;99.90
6822;DHT22;3449;48.728;8.968;2022-08-25T15:35:39;34.50;99.90
6822;DHT22;3449;48.728;8.968;2022-08-25T15:38:06;34.60;99.90
6822;DHT22;3449;48.728;8.968;2022-08-25T15:40:34;34.60;99.90
6822;DHT22;3449;48.728;8.968;2022-08-25T15:43:02;35.20;99.90
6822;DHT22;3449;48.728;8.968;2022-08-25T15:45:29;35.70;99.90
6822;DHT22;3449;48.728;8.968;2022-08-25T15:47:56;34.90;99.90
6822;DHT22;3449;48.728;8.968;2022-08-25T15:50:23;34.70;99.90
6822;DHT22;3449;48.728;8.968;2022-08-25T15:52:53;34.20;99.90
6822;DHT22;3449;48.728;8.968;2022-08-25T15:55:20;33.80;99.90
6822;DHT22;3449;48.728;8.968;2022-08-25T15:57:47;33.40;99.90
6822;DHT22;3449;48.728;8.968;2022-08-25T16:00:15;33.40;99.90
6822;DHT22;3449;48.728;8.968;2022-08-25T16:02:42;33.80;99.90
6822;DHT22;3449;48.728;8.968;2022-08-25T16:05:10;34.10;99.90
6822;DHT22;3449;48.728;8.968;2022-08-25T16:07:37;34.00;99.90
6822;DHT22;3449;48.728;8.968;2022-08-25T16:10:09;34.20;99.90
6822;DHT22;3449;48.728;8.968;2022-08-25T16:12:37;34.30;99.90
6822;DHT22;3449;48.728;8.968;2022-08-25T16:15:05;33.80;99.90
6822;DHT22;3449;48.728;8.968;2022-08-25T16:17:32;33.50;99.90
6822;DHT22;3449;48.728;8.968;2022-08-25T16:19:59;33.20;99.90
6822;DHT22;3449;48.728;8.968;2022-08-25T16:22:26;33.40;99.90
6822;DHT22;3449;48.728;8.968;2022-08-25T16:24:53;33.70;99.90
6822;DHT22;3449;48.728;8.968;2022-08-25T16:27:22;33.40;99.90
6822;DHT22;3449;48.728;8.968;2022-08-25T16:29:49;32.90;99.90
6822;DHT22;3449;48.728;8.968;2022-08-25T16:32:16;32.70;99.90
6822;DHT22;3449;48.728;8.968;2022-08-25T16:34:44;32.90;99.90
6822;DHT22;3449;48.728;8.968;2022-08-25T16:37:11;32.50;99.90